Terminal Aerodrome Forecast
Issued by NWS Des Moines, IA

Home | Current Version | Previous Version | Text Only | Print | Product List | Glossary On
Versions: 1 2 3 4 5 6 7 8 9 10 11 12 13 14 15 16 17 18 19 20 21 22 23 24 25 26 27 28 29 30 31 32 33 34 35 36 37 38 39 40 41 42 43 44 45 46 47 48 49 50
000
FTUS43 KDMX 301734
TAFALO
TAF
KALO 301734Z 3018/3118 33005KT P6SM SCT025 BKN060
     FM302100 06004KT P6SM VCSH BKN035
     FM310100 VRB03KT P6SM SCT035 SCT120
     FM310900 11003KT 2SM BR SCT018
     FM311300 14006KT P6SM BKN018
     FM311500 15006KT P6SM SCT018 SCT040=

USA.gov is the U.S. government's official web portal to all federal, state and local government web resources and services.